• Join FlightAware (Why Join?)
  • Login
  • US Flag 
11:26PM EST


 

Airport Tracker/Info


-or-


 

Live Flight TrackerFlight Track Log ✈ OPT314 ✈ 28-May-2013 ✈ KMGJ - KBDL

Flight Track Log - Related Links

Times and Time Zones

All times are in EDT time to prevent confusion due to time zone crossing. See the OPT314 flight status page for this flight to view local times or setup timezone preferences in your user account.

Time Position Orientation Groundspeed Altitude Reporting Facility
EDT Latitude Longitude Course Direction KTS MPH feet Rate Location/Type
06:46PM 41.5333 -74.2500 37° Northeast 175 201 2,400  Level New York TRACON
06:47PM 41.5833 -74.2000 37° Northeast 256 295 4,900 1,260 Climbing New York TRACON
06:48PM 41.6000 -74.0833 79° East 296 341 5,000  Climbing New York TRACON
06:49PM 41.6167 -73.9833 77° East 286 329 5,000  Level New York TRACON
06:50PM 41.6500 -73.8833 66° East 286 329 5,000  Level New York TRACON
06:51PM 41.6667 -73.7833 77° East 284 327 5,000  Level New York TRACON
06:52PM 41.7000 -73.6833 66° East 282 325 5,000  Level New York TRACON
06:53PM 41.7167 -73.5833 77° East 281 323 5,000  Level New York TRACON
06:54PM 41.7500 -73.5000 62° Northeast 280 322 5,000  Level New York TRACON
06:54PM 41.7519 -73.4392 88° East 274 315 5,000  Level Boston Center
06:55PM 41.7383 -73.3386 100° East 276 318 5,000  Level Boston Center
06:56PM 41.7411 -73.2164 88° East 283 326 5,000  Level Boston Center
06:57PM 41.8164 -73.1839 18° North 286 329 5,000  Level Boston Center
06:59PM 41.8939 -73.1514 17° North 290 334 5,000  Level Boston Center
07:00PM 41.9297 -73.0539 64° Northeast 288 331 5,000 -540 Level Boston Center
07:01PM 41.9636 -72.9650 63° Northeast 246 283 4,000 -1,020 Descending Boston Center
07:02PM 41.9911 -72.8925 63° Northeast 216 249 3,000 -780 Descending Boston Center
07:03PM 42.0039 -72.8256 76° East 174 200 2,400 -420 Descending Boston Center
07:04PM 41.9914 -72.7642 105° East 171 197 2,100 -660 Descending Boston Center
07:05PM 41.9644 -72.7247 133° Southeast 133 153 1,100 -960 Descending Boston Center
07:06PM 41.9436 -72.6997 138° Southeast 120 138 300 -900 Descending Boston Center
07:08PM 41.9333 -72.6833 95° East  Level FlightAware Approximate
07:15PM 41.9392 -72.6834 95° East  Level Estimated